createdAt,value
2022-08-26T00:01:53.723Z,13.52
2022-08-26T00:04:21.508Z,13.88
2022-08-26T00:06:48.444Z,13.07
2022-08-26T00:09:15.898Z,13.07
2022-08-26T00:11:46.413Z,13.27
2022-08-26T00:14:14.960Z,13.70
2022-08-26T00:16:47.826Z,13.25
2022-08-26T00:19:17.814Z,13.48
2022-08-26T00:21:46.256Z,13.63
2022-08-26T00:24:15.961Z,12.77
2022-08-26T00:26:43.819Z,14.15
2022-08-26T00:29:12.366Z,14.45
2022-08-26T00:31:41.273Z,13.90
2022-08-26T00:34:11.281Z,13.60
2022-08-26T00:36:40.781Z,13.73
2022-08-26T00:39:08.040Z,14.02
2022-08-26T00:41:37.385Z,14.05
2022-08-26T00:44:05.599Z,13.15
2022-08-26T00:46:37.160Z,13.63
2022-08-26T00:49:22.543Z,13.93
2022-08-26T00:52:01.274Z,13.23
2022-08-26T00:54:37.740Z,14.10
2022-08-26T00:57:16.279Z,13.23
2022-08-26T00:59:46.502Z,13.93
2022-08-26T01:02:20.172Z,13.68
2022-08-26T01:04:55.490Z,14.23
2022-08-26T01:07:26.112Z,13.90
2022-08-26T01:09:53.489Z,15.20
2022-08-26T01:12:22.022Z,14.15
2022-08-26T01:14:50.095Z,14.55
2022-08-26T01:17:17.349Z,14.80
2022-08-26T01:19:49.048Z,14.57
2022-08-26T01:22:18.943Z,14.07
2022-08-26T01:24:46.603Z,14.55
2022-08-26T01:27:18.571Z,13.57
2022-08-26T01:29:48.843Z,14.38
2022-08-26T01:32:19.627Z,12.88
2022-08-26T01:34:47.908Z,13.63
2022-08-26T01:37:21.751Z,14.00
2022-08-26T01:39:55.728Z,14.55
2022-08-26T01:42:25.947Z,14.93
2022-08-26T01:45:06.988Z,13.48
2022-08-26T01:47:36.464Z,15.75
2022-08-26T01:50:09.354Z,14.60
2022-08-26T01:52:43.000Z,14.82
2022-08-26T01:55:15.323Z,14.38
2022-08-26T01:57:57.260Z,14.38
2022-08-26T02:00:24.980Z,14.07
2022-08-26T02:03:17.198Z,13.68
2022-08-26T02:05:54.966Z,14.65
2022-08-26T02:08:44.395Z,15.07
2022-08-26T02:11:12.121Z,15.25
2022-08-26T02:13:45.342Z,15.43
2022-08-26T02:16:13.249Z,15.77
2022-08-26T02:18:43.598Z,15.60
2022-08-26T02:21:17.064Z,14.90
2022-08-26T02:23:44.327Z,15.93
2022-08-26T02:26:22.430Z,14.95
2022-08-26T02:29:26.688Z,15.93
2022-08-26T02:31:55.789Z,16.27
2022-08-26T02:34:31.129Z,14.77
2022-08-26T02:37:00.694Z,16.10
2022-08-26T02:39:29.630Z,15.02
2022-08-26T02:41:57.725Z,14.95
2022-08-26T02:44:25.748Z,15.63
2022-08-26T02:46:54.184Z,15.77
2022-08-26T02:49:22.319Z,15.38
2022-08-26T02:51:49.847Z,15.10
2022-08-26T02:54:19.176Z,15.18
2022-08-26T02:56:46.057Z,14.85
2022-08-26T02:59:12.922Z,14.73
2022-08-26T03:01:40.789Z,16.52
2022-08-26T03:04:10.302Z,15.40
2022-08-26T03:06:37.650Z,14.13
2022-08-26T03:09:05.855Z,14.68
2022-08-26T03:11:33.449Z,14.57
2022-08-26T03:14:03.390Z,15.97
2022-08-26T03:16:37.561Z,15.65
2022-08-26T03:19:07.154Z,15.98
2022-08-26T03:21:35.711Z,17.05
2022-08-26T03:24:03.728Z,15.77
2022-08-26T03:26:31.051Z,17.05
2022-08-26T03:29:16.585Z,15.55
2022-08-26T03:31:43.673Z,16.60
2022-08-26T03:34:14.036Z,15.65
2022-08-26T03:36:41.896Z,15.80
2022-08-26T03:39:08.744Z,15.47
2022-08-26T03:41:36.696Z,16.13
2022-08-26T03:44:06.784Z,14.98
2022-08-26T03:46:33.907Z,16.07
2022-08-26T03:49:02.133Z,16.10
2022-08-26T03:51:29.102Z,15.95
2022-08-26T03:53:56.527Z,16.20
2022-08-26T03:56:24.015Z,15.33
2022-08-26T03:58:51.077Z,15.50
2022-08-26T04:01:17.990Z,16.23
2022-08-26T04:04:00.424Z,16.37
2022-08-26T04:06:33.766Z,16.33
2022-08-26T04:09:04.312Z,17.03
2022-08-26T04:11:34.333Z,16.47
2022-08-26T04:14:05.632Z,17.13
2022-08-26T04:16:32.546Z,16.10
2022-08-26T04:18:59.709Z,16.13
2022-08-26T04:21:27.518Z,17.03
2022-08-26T04:23:55.301Z,16.90
2022-08-26T04:26:22.965Z,16.15
2022-08-26T04:28:52.420Z,15.70
2022-08-26T04:31:19.992Z,16.80
2022-08-26T04:33:49.622Z,16.50
2022-08-26T04:36:17.576Z,15.57
2022-08-26T04:38:47.465Z,17.37
2022-08-26T04:41:15.349Z,17.30
2022-08-26T04:43:44.798Z,16.17
2022-08-26T04:46:14.310Z,16.48
2022-08-26T04:48:41.560Z,17.65
2022-08-26T04:51:09.932Z,17.00
2022-08-26T04:53:37.708Z,17.75
2022-08-26T04:56:05.408Z,16.98
2022-08-26T04:58:32.621Z,16.57
2022-08-26T05:00:59.901Z,16.63
2022-08-26T05:03:30.289Z,17.00
2022-08-26T05:05:58.567Z,16.15
2022-08-26T05:08:26.101Z,16.90
2022-08-26T05:10:56.370Z,17.50
2022-08-26T05:13:26.264Z,17.90
2022-08-26T05:15:53.672Z,16.67
2022-08-26T05:18:24.188Z,18.20
2022-08-26T05:20:54.652Z,17.95
2022-08-26T05:23:23.190Z,17.50
2022-08-26T05:25:58.373Z,16.38
2022-08-26T05:28:28.419Z,16.38
2022-08-26T05:30:56.055Z,16.80
2022-08-26T05:33:23.744Z,16.02
2022-08-26T05:35:51.090Z,15.65
2022-08-26T05:38:21.488Z,15.27
2022-08-26T05:40:52.859Z,14.98
2022-08-26T05:43:20.432Z,16.42
2022-08-26T05:45:49.934Z,17.30
2022-08-26T05:48:19.068Z,16.83
2022-08-26T05:50:53.007Z,16.30
2022-08-26T05:53:21.793Z,16.20
2022-08-26T05:55:51.395Z,16.63
2022-08-26T05:58:20.970Z,16.10
2022-08-26T06:01:04.595Z,15.88
2022-08-26T06:03:34.006Z,15.32
2022-08-26T06:06:06.838Z,15.40
2022-08-26T06:08:34.449Z,16.85
2022-08-26T06:11:04.401Z,15.45
2022-08-26T06:13:33.676Z,15.18
2022-08-26T06:16:05.797Z,16.90
2022-08-26T06:18:36.394Z,15.27
2022-08-26T06:21:19.415Z,16.13
2022-08-26T06:24:07.205Z,15.20
2022-08-26T06:26:35.794Z,15.60
2022-08-26T06:29:05.175Z,15.05
2022-08-26T06:31:34.376Z,15.73
2022-08-26T06:34:05.202Z,14.85
2022-08-26T06:36:35.025Z,15.93
2022-08-26T06:39:10.263Z,14.68
2022-08-26T06:41:42.783Z,14.68
2022-08-26T06:44:11.065Z,15.30
2022-08-26T06:46:38.780Z,14.10
2022-08-26T06:49:05.803Z,15.05
2022-08-26T06:51:35.969Z,15.63
2022-08-26T06:54:05.522Z,14.55
2022-08-26T06:56:44.168Z,14.75
2022-08-26T06:59:12.303Z,14.40
2022-08-26T07:01:44.836Z,13.20
2022-08-26T07:04:15.767Z,12.90
2022-08-26T07:06:49.319Z,13.38
2022-08-26T07:09:17.458Z,13.90
2022-08-26T07:11:44.779Z,12.68
2022-08-26T07:14:12.292Z,13.57
2022-08-26T07:16:41.218Z,11.63
2022-08-26T07:19:10.956Z,12.88
2022-08-26T07:21:38.707Z,12.38
2022-08-26T07:24:06.563Z,11.63
2022-08-26T07:26:33.606Z,12.95
2022-08-26T07:29:01.769Z,12.15
2022-08-26T07:31:39.300Z,11.93
2022-08-26T07:34:09.382Z,10.93
2022-08-26T07:36:36.777Z,10.55
2022-08-26T07:39:03.919Z,10.45
2022-08-26T07:41:30.893Z,11.48
2022-08-26T07:43:59.384Z,10.05
2022-08-26T07:46:27.284Z,10.02
2022-08-26T07:48:58.299Z,9.48
2022-08-26T07:51:28.000Z,9.18
2022-08-26T07:53:56.147Z,10.13
2022-08-26T07:56:23.552Z,9.95
2022-08-26T07:58:51.980Z,9.88
2022-08-26T08:01:21.740Z,8.85
2022-08-26T08:03:51.579Z,9.48
2022-08-26T08:06:20.320Z,9.38
2022-08-26T08:08:51.743Z,9.25
2022-08-26T08:11:22.985Z,9.90
2022-08-26T08:13:56.016Z,9.70
2022-08-26T08:16:28.680Z,9.93
2022-08-26T08:18:59.379Z,8.90
2022-08-26T08:21:28.028Z,8.60
2022-08-26T08:23:57.497Z,8.95
2022-08-26T08:26:26.269Z,8.15
2022-08-26T08:28:57.790Z,8.93
2022-08-26T08:31:56.107Z,8.50
2022-08-26T08:34:18.440Z,8.57
2022-08-26T08:36:48.863Z,8.13
2022-08-26T08:39:17.734Z,8.23
2022-08-26T08:41:54.720Z,8.18
2022-08-26T08:47:13.160Z,7.20
2022-08-26T08:49:40.385Z,7.78
2022-08-26T08:52:32.552Z,7.32
2022-08-26T08:55:00.850Z,7.68
2022-08-26T08:58:02.420Z,7.43
2022-08-26T09:00:41.405Z,8.20
2022-08-26T09:03:33.724Z,7.50
2022-08-26T09:06:02.043Z,7.82
2022-08-26T09:08:35.910Z,8.25
2022-08-26T09:11:04.452Z,8.20
2022-08-26T09:13:32.035Z,8.43
2022-08-26T09:16:06.941Z,8.38
2022-08-26T09:18:49.038Z,8.02
2022-08-26T09:21:19.180Z,8.35
2022-08-26T09:23:49.622Z,8.20
2022-08-26T09:26:29.273Z,8.75
2022-08-26T09:29:03.544Z,7.53
2022-08-26T09:31:34.318Z,8.88
2022-08-26T09:34:27.551Z,7.88
2022-08-26T09:36:55.919Z,8.25
2022-08-26T09:39:32.031Z,8.35
2022-08-26T09:42:23.127Z,8.43
2022-08-26T09:45:03.711Z,8.57
2022-08-26T09:47:39.863Z,7.70
2022-08-26T09:50:33.974Z,8.18
2022-08-26T09:53:28.843Z,7.60
2022-08-26T09:56:24.266Z,7.97
2022-08-26T09:58:53.523Z,8.23
2022-08-26T10:01:23.525Z,6.88
2022-08-26T10:03:51.543Z,7.20
2022-08-26T10:06:21.101Z,7.43
2022-08-26T10:08:52.342Z,7.82
2022-08-26T10:11:30.577Z,6.93
2022-08-26T10:14:10.224Z,7.00
2022-08-26T10:16:56.983Z,6.30
2022-08-26T10:19:56.640Z,7.10
2022-08-26T10:22:42.259Z,6.50
2022-08-26T10:25:16.056Z,6.50
2022-08-26T10:28:18.196Z,6.45
2022-08-26T10:31:21.466Z,6.40
2022-08-26T10:33:58.798Z,6.28
2022-08-26T10:37:10.568Z,6.07
2022-08-26T10:39:43.839Z,6.63
2022-08-26T10:42:24.397Z,6.43
2022-08-26T10:44:58.653Z,6.60
2022-08-26T10:47:37.391Z,6.10
2022-08-26T10:50:05.668Z,6.57
2022-08-26T10:52:48.900Z,6.55
2022-08-26T10:55:35.546Z,6.88
2022-08-26T10:58:26.685Z,6.53
2022-08-26T11:01:28.824Z,6.25
2022-08-26T11:04:12.152Z,6.55
2022-08-26T11:06:39.482Z,6.43
2022-08-26T11:09:10.075Z,6.28
2022-08-26T11:11:39.893Z,6.22
2022-08-26T11:14:10.887Z,6.20
2022-08-26T11:16:43.995Z,6.40
2022-08-26T11:19:58.983Z,6.55
2022-08-26T11:22:31.528Z,6.70
2022-08-26T11:24:58.978Z,6.80
2022-08-26T11:27:27.102Z,6.55
2022-08-26T11:30:19.622Z,6.45
2022-08-26T11:32:51.101Z,6.30
2022-08-26T11:35:17.896Z,6.72
2022-08-26T11:37:55.480Z,5.97
2022-08-26T11:40:27.066Z,6.68
2022-08-26T11:43:21.500Z,5.75
2022-08-26T11:46:00.376Z,6.75
2022-08-26T11:48:30.998Z,6.40
2022-08-26T11:51:02.449Z,7.07
2022-08-26T11:53:32.605Z,7.45
2022-08-26T11:56:04.217Z,6.53
2022-08-26T11:58:32.004Z,6.90
2022-08-26T12:01:03.907Z,6.88
2022-08-26T12:03:46.215Z,7.53
2022-08-26T12:06:37.423Z,6.68
2022-08-26T12:09:14.819Z,7.20
2022-08-26T12:11:42.029Z,7.43
2022-08-26T12:14:27.642Z,7.28
2022-08-26T12:16:55.152Z,7.60
2022-08-26T12:19:37.396Z,8.18
2022-08-26T12:22:20.933Z,8.00
2022-08-26T12:24:58.539Z,7.57
2022-08-26T12:27:31.421Z,8.05
2022-08-26T12:30:02.897Z,7.82
2022-08-26T12:32:31.489Z,7.55
2022-08-26T12:35:01.892Z,7.53
2022-08-26T12:37:35.161Z,7.55
2022-08-26T12:40:41.860Z,7.47
2022-08-26T12:43:09.995Z,7.35
2022-08-26T12:45:55.854Z,7.70
2022-08-26T12:48:31.828Z,7.47
2022-08-26T12:51:00.133Z,8.20
2022-08-26T12:53:32.657Z,8.02
2022-08-26T12:56:01.524Z,7.75
2022-08-26T12:58:31.746Z,7.30
2022-08-26T13:01:05.037Z,7.45
2022-08-26T13:03:35.099Z,7.72
2022-08-26T13:06:29.990Z,8.10
2022-08-26T13:09:22.916Z,8.50
2022-08-26T13:11:50.298Z,7.25
2022-08-26T13:14:23.982Z,8.10
2022-08-26T13:16:51.536Z,7.43
2022-08-26T13:19:22.045Z,8.15
2022-08-26T13:21:53.848Z,7.38
2022-08-26T13:24:32.925Z,7.10
2022-08-26T13:27:00.230Z,6.32
2022-08-26T13:29:28.637Z,6.20
2022-08-26T13:31:55.712Z,5.80
2022-08-26T13:34:23.519Z,6.70
2022-08-26T13:36:54.177Z,5.95
2022-08-26T13:39:22.627Z,4.63
2022-08-26T13:41:50.140Z,4.78
2022-08-26T13:44:17.411Z,4.70
2022-08-26T13:49:12.286Z,5.93
2022-08-26T13:51:39.633Z,5.50
2022-08-26T13:54:06.698Z,5.88
2022-08-26T13:56:34.062Z,6.07
2022-08-26T13:59:01.753Z,6.68
2022-08-26T14:01:33.135Z,7.07
2022-08-26T14:03:59.967Z,6.40
2022-08-26T14:06:26.932Z,5.65
2022-08-26T14:08:53.740Z,5.88
2022-08-26T14:11:21.518Z,6.35
2022-08-26T14:13:48.450Z,9.32
2022-08-26T14:16:26.220Z,9.00
2022-08-26T14:18:53.512Z,10.57
2022-08-26T14:21:20.885Z,9.68
2022-08-26T14:23:47.960Z,9.43
2022-08-26T14:26:28.226Z,8.60
2022-08-26T14:28:59.897Z,8.63
2022-08-26T14:31:29.322Z,8.90
2022-08-26T14:34:00.090Z,9.23
2022-08-26T14:36:31.370Z,9.05
2022-08-26T14:39:10.857Z,8.75
2022-08-26T14:41:54.368Z,7.95
2022-08-26T14:44:25.749Z,7.45
2022-08-26T14:46:54.512Z,7.35
2022-08-26T14:49:23.450Z,8.05
2022-08-26T14:51:50.817Z,6.70
2022-08-26T14:54:18.553Z,7.57
2022-08-26T14:56:54.876Z,9.15
2022-08-26T14:59:26.172Z,10.38
2022-08-26T15:01:54.362Z,11.30
2022-08-26T15:04:23.030Z,10.02
2022-08-26T15:06:50.979Z,9.05
2022-08-26T15:09:17.849Z,9.20
2022-08-26T15:11:45.140Z,9.40
2022-08-26T15:14:19.123Z,10.93
2022-08-26T15:16:51.659Z,11.43
2022-08-26T15:19:19.389Z,9.98
2022-08-26T15:21:47.505Z,11.25
2022-08-26T15:24:16.980Z,11.98
2022-08-26T15:26:45.025Z,10.60
2022-08-26T15:29:12.029Z,10.45
2022-08-26T15:31:39.046Z,10.75
2022-08-26T15:34:13.267Z,10.73
2022-08-26T15:36:44.851Z,11.40
2022-08-26T15:39:12.286Z,11.30
2022-08-26T15:41:39.825Z,11.50
2022-08-26T15:44:08.398Z,11.57
2022-08-26T15:46:36.408Z,11.82
2022-08-26T15:49:05.166Z,10.65
2022-08-26T15:51:35.558Z,10.00
2022-08-26T15:54:14.124Z,11.98
2022-08-26T15:56:41.019Z,11.07
2022-08-26T15:59:11.352Z,11.50
2022-08-26T16:01:38.326Z,11.85
2022-08-26T16:04:05.879Z,10.60
2022-08-26T16:06:36.045Z,11.07
2022-08-26T16:09:03.899Z,10.13
2022-08-26T16:11:31.272Z,11.57
2022-08-26T16:13:58.393Z,12.38
2022-08-26T16:16:25.284Z,12.32
2022-08-26T16:18:53.278Z,12.15
2022-08-26T16:21:22.739Z,13.30
2022-08-26T16:23:49.573Z,11.90
2022-08-26T16:26:19.904Z,12.60
2022-08-26T16:28:47.493Z,12.90
2022-08-26T16:31:15.443Z,12.60
2022-08-26T16:33:42.415Z,11.73
2022-08-26T16:36:10.386Z,12.23
2022-08-26T16:38:38.620Z,12.50
2022-08-26T16:41:06.246Z,13.00
2022-08-26T16:43:33.399Z,12.25
2022-08-26T16:46:02.065Z,12.32
2022-08-26T16:48:28.991Z,13.13
2022-08-26T16:50:55.883Z,12.85
2022-08-26T16:53:23.424Z,13.10
2022-08-26T16:55:51.495Z,12.30
2022-08-26T16:58:21.963Z,12.18
2022-08-26T17:00:49.565Z,11.90
2022-08-26T17:03:16.925Z,12.60
2022-08-26T17:05:44.566Z,12.55
2022-08-26T17:08:24.330Z,11.60
2022-08-26T17:10:55.936Z,11.40
2022-08-26T17:13:34.834Z,12.48
2022-08-26T17:16:07.515Z,11.88
2022-08-26T17:18:35.652Z,13.10
2022-08-26T17:21:08.590Z,11.68
2022-08-26T17:23:36.611Z,13.88
2022-08-26T17:26:03.494Z,13.88
2022-08-26T17:28:30.511Z,12.98
2022-08-26T17:30:58.621Z,14.48
2022-08-26T17:33:26.233Z,14.93
2022-08-26T17:35:54.036Z,14.38
2022-08-26T17:38:22.908Z,13.00
2022-08-26T17:40:50.492Z,13.70
2022-08-26T17:43:18.525Z,14.43
2022-08-26T17:45:45.519Z,13.90
2022-08-26T17:48:12.897Z,13.82
2022-08-26T17:50:41.695Z,14.23
2022-08-26T17:53:18.490Z,18.33
2022-08-26T17:55:47.441Z,18.80
2022-08-26T17:58:17.238Z,21.23
2022-08-26T18:00:46.540Z,17.88
2022-08-26T18:03:13.812Z,16.92
2022-08-26T18:05:42.616Z,15.80
2022-08-26T18:08:09.993Z,15.30
2022-08-26T18:10:36.873Z,14.35
2022-08-26T18:13:04.782Z,17.00
2022-08-26T18:15:31.688Z,14.40
2022-08-26T18:17:58.880Z,15.02
2022-08-26T18:20:26.310Z,13.77
2022-08-26T18:22:54.398Z,14.75
2022-08-26T18:25:21.521Z,15.25
2022-08-26T18:27:48.435Z,15.68
2022-08-26T18:30:18.447Z,15.95
2022-08-26T18:32:45.526Z,16.85
2022-08-26T18:35:13.605Z,16.23
2022-08-26T18:37:40.801Z,16.73
2022-08-26T18:40:12.434Z,14.18
2022-08-26T18:42:41.356Z,15.15
2022-08-26T18:45:10.205Z,14.43
2022-08-26T18:47:43.776Z,14.15
2022-08-26T18:50:11.284Z,14.35
2022-08-26T18:52:38.643Z,14.98
2022-08-26T18:55:05.916Z,15.05
2022-08-26T18:57:33.156Z,14.02
2022-08-26T19:00:00.037Z,14.13
2022-08-26T19:02:27.165Z,15.80
2022-08-26T19:04:57.507Z,15.05
2022-08-26T19:07:24.596Z,14.60
2022-08-26T19:09:53.896Z,15.45
2022-08-26T19:12:21.512Z,15.07
2022-08-26T19:14:48.698Z,14.32
2022-08-26T19:17:15.721Z,13.32
2022-08-26T19:19:43.688Z,15.18
2022-08-26T19:22:12.470Z,16.17
2022-08-26T19:24:39.560Z,16.80
2022-08-26T19:27:06.675Z,17.65
2022-08-26T19:29:35.659Z,18.10
2022-08-26T19:32:03.639Z,18.55
2022-08-26T19:34:31.728Z,19.40
2022-08-26T19:36:58.931Z,18.27
2022-08-26T19:39:26.635Z,17.77
2022-08-26T19:41:54.255Z,18.42
2022-08-26T19:44:41.596Z,18.02
2022-08-26T19:47:10.700Z,18.50
2022-08-26T19:49:39.154Z,16.55
2022-08-26T19:52:06.766Z,17.35
2022-08-26T19:54:35.558Z,16.50
2022-08-26T19:57:02.985Z,16.10
2022-08-26T19:59:29.960Z,16.60
2022-08-26T20:02:01.399Z,17.35
2022-08-26T20:04:30.929Z,17.98
2022-08-26T20:07:00.518Z,16.92
2022-08-26T20:09:29.241Z,15.88
2022-08-26T20:11:56.850Z,15.45
2022-08-26T20:14:25.147Z,15.68
2022-08-26T20:16:53.028Z,15.32
2022-08-26T20:19:38.968Z,13.85
2022-08-26T20:22:06.547Z,14.63
2022-08-26T20:24:33.628Z,15.45
2022-08-26T20:27:05.469Z,16.25
2022-08-26T20:29:35.602Z,15.95
2022-08-26T20:32:07.255Z,15.38
2022-08-26T20:34:35.552Z,15.30
2022-08-26T20:37:03.528Z,15.90
2022-08-26T20:39:30.433Z,16.85
2022-08-26T20:41:58.317Z,17.02
2022-08-26T20:44:26.038Z,17.08
2022-08-26T20:46:53.008Z,17.00
2022-08-26T20:49:19.957Z,16.55
2022-08-26T20:51:50.803Z,17.77
2022-08-26T20:54:19.461Z,16.40
2022-08-26T20:56:46.885Z,16.75
2022-08-26T20:59:14.245Z,14.70
2022-08-26T21:01:42.307Z,15.80
2022-08-26T21:04:13.071Z,16.70
2022-08-26T21:06:42.320Z,16.08
2022-08-26T21:09:16.710Z,14.05
2022-08-26T21:11:45.224Z,15.52
2022-08-26T21:14:16.260Z,16.17
2022-08-26T21:16:45.569Z,15.43
2022-08-26T21:19:16.116Z,15.93
2022-08-26T21:21:43.149Z,15.23
2022-08-26T21:24:10.601Z,14.82
2022-08-26T21:26:37.749Z,16.52
2022-08-26T21:29:06.729Z,16.83
2022-08-26T21:31:35.018Z,15.90
2022-08-26T21:34:01.991Z,16.40
2022-08-26T21:36:28.921Z,16.50
2022-08-26T21:38:59.903Z,17.25
2022-08-26T21:41:27.689Z,16.50
2022-08-26T21:43:59.082Z,15.85
2022-08-26T21:46:29.122Z,16.67
2022-08-26T21:49:01.395Z,15.80
2022-08-26T21:51:32.417Z,17.85
2022-08-26T21:54:00.808Z,16.42
2022-08-26T21:56:31.641Z,17.42
2022-08-26T21:58:59.700Z,16.70
2022-08-26T22:01:31.877Z,16.70
2022-08-26T22:03:59.153Z,16.08
2022-08-26T22:06:28.390Z,16.30
2022-08-26T22:08:56.337Z,16.42
2022-08-26T22:11:24.278Z,16.75
2022-08-26T22:13:51.850Z,15.63
2022-08-26T22:16:19.708Z,15.40
2022-08-26T22:18:46.894Z,14.63
2022-08-26T22:21:18.432Z,15.43
2022-08-26T22:23:45.723Z,16.80
2022-08-26T22:26:15.655Z,14.65
2022-08-26T22:28:58.663Z,15.57
2022-08-26T22:31:37.078Z,15.77
2022-08-26T22:34:07.192Z,15.63
2022-08-26T22:36:34.080Z,15.48
2022-08-26T22:39:01.440Z,14.98
2022-08-26T22:41:28.422Z,15.05
2022-08-26T22:44:02.651Z,15.57
2022-08-26T22:46:30.017Z,16.40
2022-08-26T22:48:57.631Z,15.90
2022-08-26T22:51:25.192Z,15.25
2022-08-26T22:53:52.043Z,18.27
2022-08-26T22:56:19.160Z,17.63
2022-08-26T22:58:46.119Z,17.05
2022-08-26T23:01:13.408Z,17.10
2022-08-26T23:03:40.341Z,17.42
2022-08-26T23:06:10.766Z,17.38
2022-08-26T23:08:39.375Z,16.85
2022-08-26T23:11:13.467Z,17.20
2022-08-26T23:13:41.032Z,16.77
2022-08-26T23:16:11.636Z,17.52
2022-08-26T23:18:40.717Z,16.63
2022-08-26T23:21:08.291Z,17.13
2022-08-26T23:23:35.439Z,17.20
2022-08-26T23:26:05.913Z,16.05
2022-08-26T23:28:33.892Z,16.38
2022-08-26T23:31:00.720Z,16.77
2022-08-26T23:33:47.838Z,15.88
2022-08-26T23:36:17.921Z,15.25
2022-08-26T23:38:47.643Z,16.77
2022-08-26T23:41:21.728Z,16.05
2022-08-26T23:43:49.025Z,15.32
2022-08-26T23:46:16.230Z,15.88
2022-08-26T23:48:43.241Z,15.52
2022-08-26T23:51:29.871Z,16.25
2022-08-26T23:53:57.909Z,14.73
2022-08-26T23:56:25.436Z,16.80
2022-08-26T23:58:53.963Z,16.15
